Time;durP1;ratioP1;P1;durP2;ratioP2;P2;SDS_P1;SDS_P2;PMS_P1;PMS_P2;Temp;Humidity;BMP_temperature;BMP_pressure;BME280_temperature;BME280_humidity;BME280_pressure;Samples;Min_cycle;Max_cycle;Signal;HPM_P1;HPM_P2
2021/01/29 00:01:10;;;;;;;1.17;0.70;;;10.50;87.50;;;;;;5069715;28;20027;-66
2021/01/29 00:03:35;;;;;;;2.03;0.70;;;10.50;87.30;;;;;;5068249;28;20039;-67
2021/01/29 00:06:03;;;;;;;1.15;0.70;;;10.50;87.50;;;;;;5067534;28;20021;-67
2021/01/29 00:08:31;;;;;;;1.65;0.60;;;10.50;87.50;;;;;;5062515;28;20485;-67
2021/01/29 00:10:56;;;;;;;1.25;0.70;;;10.50;87.50;;;;;;5049343;28;20560;-67
2021/01/29 00:13:23;;;;;;;3.30;0.80;;;10.50;87.50;;;;;;5059303;28;20036;-67
2021/01/29 00:15:49;;;;;;;3.65;0.60;;;10.50;87.30;;;;;;5068130;28;20031;-67
2021/01/29 00:18:15;;;;;;;1.38;0.60;;;10.50;87.30;;;;;;5069071;28;20024;-65
2021/01/29 00:20:41;;;;;;;1.67;0.80;;;10.50;87.10;;;;;;5070086;28;20102;-67
2021/01/29 00:23:06;;;;;;;0.75;0.65;;;10.40;87.20;;;;;;5058246;28;20021;-67
2021/01/29 00:25:38;;;;;;;2.50;1.00;;;10.40;87.10;;;;;;5068708;28;20024;-67
2021/01/29 00:28:05;;;;;;;3.20;0.93;;;10.40;87.20;;;;;;5062957;28;20534;-66
2021/01/29 00:30:31;;;;;;;1.52;0.80;;;10.40;87.20;;;;;;5068672;28;20642;-67
2021/01/29 00:32:58;;;;;;;2.70;1.23;;;10.40;87.10;;;;;;5069244;28;20056;-67
2021/01/29 00:35:27;;;;;;;3.70;1.80;;;10.40;87.10;;;;;;5068990;28;20021;-66
2021/01/29 00:37:52;;;;;;;4.38;1.10;;;10.40;87.20;;;;;;5063191;28;20039;-67
2021/01/29 00:40:18;;;;;;;1.70;0.80;;;10.40;87.10;;;;;;5055779;28;20025;-68
2021/01/29 00:42:45;;;;;;;1.27;0.70;;;10.40;87.20;;;;;;5069152;28;20024;-67
2021/01/29 00:45:13;;;;;;;3.97;0.93;;;10.40;87.10;;;;;;5060925;28;20024;-68
2021/01/29 00:47:39;;;;;;;1.27;0.77;;;10.40;87.20;;;;;;5070615;28;20107;-67
2021/01/29 00:50:06;;;;;;;1.90;0.75;;;10.30;87.10;;;;;;5067824;28;20054;-67
2021/01/29 00:52:32;;;;;;;2.53;0.80;;;10.30;87.30;;;;;;5069638;28;20070;-65
2021/01/29 00:54:57;;;;;;;1.75;0.85;;;10.20;87.50;;;;;;5066145;28;20049;-67
2021/01/29 00:57:23;;;;;;;2.83;0.82;;;10.20;87.60;;;;;;5069339;28;20481;-68
2021/01/29 00:59:48;;;;;;;1.45;0.88;;;10.20;87.70;;;;;;5049615;28;20029;-67
2021/01/29 01:02:14;;;;;;;1.23;1.00;;;10.20;87.80;;;;;;5065183;28;20028;-66
2021/01/29 01:04:40;;;;;;;2.00;0.75;;;10.20;87.90;;;;;;5069786;28;20126;-66
2021/01/29 01:07:06;;;;;;;3.10;0.70;;;10.20;87.90;;;;;;5067791;28;20040;-66
2021/01/29 01:09:31;;;;;;;1.35;0.75;;;10.10;88.10;;;;;;5048141;28;20029;-67
2021/01/29 01:11:57;;;;;;;0.77;0.70;;;10.20;88.10;;;;;;5052616;28;20025;-67
2021/01/29 01:14:23;;;;;;;0.82;0.60;;;10.10;88.00;;;;;;5052781;28;20037;-66
2021/01/29 01:16:48;;;;;;;3.30;0.70;;;10.10;88.10;;;;;;5053704;28;20112;-65
2021/01/29 01:19:14;;;;;;;0.80;0.70;;;10.10;88.20;;;;;;5072337;28;20032;-67
2021/01/29 01:21:40;;;;;;;3.55;0.93;;;10.10;88.20;;;;;;5072656;28;20017;-67
2021/01/29 01:24:06;;;;;;;3.00;0.82;;;10.10;88.20;;;;;;5063532;28;20036;-67
2021/01/29 01:26:32;;;;;;;0.95;0.63;;;10.00;88.20;;;;;;5054966;28;20027;-67
2021/01/29 01:28:57;;;;;;;2.30;0.82;;;10.10;88.20;;;;;;5063307;28;20021;-67
2021/01/29 01:31:23;;;;;;;1.60;0.70;;;10.10;88.20;;;;;;5072477;28;20028;-66
2021/01/29 01:33:48;;;;;;;3.22;0.63;;;10.10;88.20;;;;;;5071322;28;20723;-67
2021/01/29 01:36:14;;;;;;;3.15;0.80;;;10.10;88.20;;;;;;5070973;28;20072;-67
2021/01/29 01:38:40;;;;;;;0.63;0.55;;;10.10;88.20;;;;;;5059567;28;20024;-67
2021/01/29 01:41:07;;;;;;;0.88;0.75;;;10.10;88.10;;;;;;5066673;28;20109;-66
2021/01/29 01:43:32;;;;;;;0.75;0.75;;;10.10;88.10;;;;;;5039134;28;20126;-67
2021/01/29 01:46:10;;;;;;;1.80;0.80;;;10.10;88.20;;;;;;5071307;28;20469;-66
2021/01/29 01:48:48;;;;;;;1.67;0.70;;;10.10;88.10;;;;;;5071773;28;20511;-66
2021/01/29 01:51:49;;;;;;;0.90;0.90;;;10.00;88.10;;;;;;5071571;28;20029;-66
2021/01/29 01:54:22;;;;;;;2.50;0.90;;;10.00;88.30;;;;;;5042427;28;20036;-67
2021/01/29 01:56:52;;;;;;;;;;;9.90;88.20;;;;;;5072228;28;20134;-66
2021/01/29 01:59:23;;;;;;;1.42;0.98;;;9.90;88.80;;;;;;5071485;28;20352;-67
2021/01/29 02:01:52;;;;;;;3.05;1.05;;;9.80;88.40;;;;;;5071482;28;20441;-67
2021/01/29 02:04:19;;;;;;;1.98;0.98;;;9.80;88.60;;;;;;5070941;28;20488;-67
2021/01/29 02:07:12;;;;;;;1.52;0.80;;;9.70;88.70;;;;;;5063302;28;20036;-66
2021/01/29 02:09:39;;;;;;;;;;;9.70;88.90;;;;;;5065746;28;20027;-67
2021/01/29 02:12:06;;;;;;;0.93;0.82;;;9.70;88.70;;;;;;5071546;28;19958;-67
2021/01/29 02:14:32;;;;;;;2.88;1.00;;;9.60;88.80;;;;;;5070237;28;20528;-66
2021/01/29 02:17:35;;;;;;;0.80;0.80;;;9.60;89.10;;;;;;5071858;28;20056;-67
2021/01/29 02:20:42;;;;;;;1.55;0.75;;;9.50;89.30;;;;;;5061378;28;20028;-66
2021/01/29 02:23:14;;;;;;;1.40;0.90;;;9.50;89.50;;;;;;5036098;28;20036;-67
2021/01/29 02:25:42;;;;;;;1.17;0.80;;;9.50;89.70;;;;;;5070837;28;20028;-67
2021/01/29 02:28:19;;;;;;;1.40;0.90;;;9.40;89.80;;;;;;5069982;28;20021;-66
2021/01/29 02:31:02;;;;;;;2.67;0.90;;;9.40;89.80;;;;;;5050996;28;20021;-67
2021/01/29 02:34:04;;;;;;;1.42;0.90;;;9.40;89.90;;;;;;5060975;28;20493;-67
2021/01/29 02:36:41;;;;;;;1.23;0.80;;;9.40;90.00;;;;;;5055597;28;20028;-66
2021/01/29 02:39:21;;;;;;;3.13;0.88;;;9.40;89.90;;;;;;5069966;28;20040;-66
2021/01/29 02:42:01;;;;;;;2.88;1.10;;;9.40;90.00;;;;;;5052136;28;20516;-65
2021/01/29 02:44:53;;;;;;;1.33;1.00;;;9.40;90.10;;;;;;5064376;28;20481;-67
2021/01/29 02:47:29;;;;;;;2.97;1.52;;;9.40;90.00;;;;;;5070195;28;20114;-67
2021/01/29 02:50:00;;;;;;;1.17;0.93;;;9.40;90.00;;;;;;5070617;28;20025;-67
2021/01/29 02:52:40;;;;;;;2.17;1.10;;;9.40;90.00;;;;;;5069983;28;20034;-66
2021/01/29 02:55:19;;;;;;;2.63;1.00;;;9.40;90.00;;;;;;5069772;28;20614;-66
2021/01/29 02:57:47;;;;;;;1.88;0.90;;;9.40;90.00;;;;;;5069613;28;20033;-67
2021/01/29 03:00:45;;;;;;;1.95;1.05;;;9.40;90.10;;;;;;5070191;28;20074;-68
2021/01/29 03:03:18;;;;;;;1.35;1.00;;;9.40;90.10;;;;;;5051427;28;20035;-67
2021/01/29 03:05:53;;;;;;;2.08;1.20;;;9.40;90.10;;;;;;5069033;28;20493;-65
2021/01/29 03:08:30;;;;;;;3.92;1.50;;;9.40;90.20;;;;;;5051690;28;20032;-67
2021/01/29 03:11:17;;;;;;;1.30;1.20;;;9.40;90.20;;;;;;5060608;28;20118;-66
2021/01/29 03:14:00;;;;;;;4.53;1.10;;;9.40;90.30;;;;;;5067131;28;20472;-67
2021/01/29 03:16:33;;;;;;;3.53;1.45;;;9.40;90.20;;;;;;5060433;28;20033;-67
2021/01/29 03:19:15;;;;;;;3.50;1.50;;;9.40;90.20;;;;;;5065286;28;20029;-66
2021/01/29 03:21:45;;;;;;;2.60;1.70;;;9.30;90.20;;;;;;5055419;28;20029;-67
2021/01/29 03:24:36;;;;;;;2.28;1.40;;;9.40;90.20;;;;;;5056310;28;20091;-67
2021/01/29 03:27:10;;;;;;;3.53;1.60;;;9.30;90.20;;;;;;5057402;28;20033;-66
2021/01/29 03:29:40;;;;;;;1.60;1.50;;;9.30;90.30;;;;;;5070198;28;20476;-68
2021/01/29 03:32:09;;;;;;;3.08;1.40;;;9.30;90.30;;;;;;5069013;28;20430;-67
2021/01/29 03:34:46;;;;;;;1.85;1.48;;;9.30;90.30;;;;;;5068150;28;20033;-67
2021/01/29 03:37:27;;;;;;;2.47;1.80;;;9.20;90.30;;;;;;5064419;28;20119;-67
2021/01/29 03:39:54;;;;;;;3.30;1.70;;;9.20;90.40;;;;;;5051076;28;20029;-67
2021/01/29 03:42:36;;;;;;;1.77;1.67;;;9.20;90.40;;;;;;5069346;28;20453;-67
2021/01/29 03:45:13;;;;;;;2.10;1.70;;;9.20;90.50;;;;;;5069198;28;20048;-67
2021/01/29 03:48:03;;;;;;;1.50;1.40;;;9.20;90.50;;;;;;5070096;28;20029;-67
2021/01/29 03:50:47;;;;;;;1.70;1.50;;;9.20;90.60;;;;;;5050774;28;20484;-67
2021/01/29 03:53:23;;;;;;;2.30;1.45;;;9.20;90.80;;;;;;5054455;28;20123;-67
2021/01/29 03:56:07;;;;;;;2.95;1.40;;;9.20;90.80;;;;;;5069160;28;20111;-68
2021/01/29 03:58:58;;;;;;;2.88;1.40;;;9.20;90.90;;;;;;5069575;28;20032;-67
2021/01/29 04:01:42;;;;;;;1.80;1.70;;;9.20;91.00;;;;;;5068960;28;20046;-67
2021/01/29 04:04:40;;;;;;;1.88;1.48;;;9.20;91.00;;;;;;5050688;28;20112;-67
2021/01/29 04:07:15;;;;;;;1.98;1.50;;;9.20;91.00;;;;;;5058441;22;20716;-71
2021/01/29 04:10:11;;;;;;;1.77;1.30;;;9.20;91.10;;;;;;5042933;28;20453;-71
2021/01/29 04:13:04;;;;;;;1.38;1.27;;;9.20;91.00;;;;;;5040912;28;20047;-70
2021/01/29 04:15:43;;;;;;;2.22;1.30;;;9.30;91.00;;;;;;5047995;28;20021;-70
2021/01/29 04:18:23;;;;;;;2.60;1.15;;;9.30;90.90;;;;;;5050093;28;20028;-70
2021/01/29 04:21:30;;;;;;;1.20;1.10;;;9.30;90.90;;;;;;5049434;28;20052;-70
2021/01/29 04:24:12;;;;;;;1.10;1.00;;;9.30;90.90;;;;;;5029553;28;20048;-70
2021/01/29 04:26:58;;;;;;;;;;;9.30;90.90;;;;;;5040913;28;20049;-71
2021/01/29 04:29:33;;;;;;;0.88;0.70;;;9.30;90.90;;;;;;5042791;28;19995;-70
2021/01/29 04:32:07;;;;;;;0.70;0.70;;;9.30;90.90;;;;;;5052652;28;20376;-71
2021/01/29 04:34:37;;;;;;;0.82;0.82;;;9.40;90.90;;;;;;5052795;28;20033;-71
2021/01/29 04:37:07;;;;;;;0.88;0.70;;;9.30;90.90;;;;;;5053359;28;20089;-71
2021/01/29 04:39:45;;;;;;;1.50;0.85;;;9.40;90.90;;;;;;5052564;28;20037;-71
2021/01/29 04:42:52;;;;;;;0.60;0.60;;;9.40;90.90;;;;;;5052252;28;20481;-70
2021/01/29 04:45:50;;;;;;;2.10;1.00;;;9.40;91.00;;;;;;5051674;28;20029;-71
2021/01/29 04:48:23;;;;;;;1.38;0.95;;;9.30;90.80;;;;;;5033634;28;20029;-71
2021/01/29 04:51:25;;;;;;;0.95;0.60;;;9.30;90.90;;;;;;5051945;28;20098;-69
2021/01/29 04:54:39;;;;;;;0.73;0.73;;;9.30;91.00;;;;;;5051387;28;20033;-70
2021/01/29 04:57:25;;;;;;;0.60;0.60;;;9.20;91.00;;;;;;5036154;28;20505;-70
2021/01/29 05:00:18;;;;;;;0.77;0.70;;;9.30;91.00;;;;;;5054681;28;20033;-69
2021/01/29 05:02:49;;;;;;;0.60;0.60;;;9.20;91.00;;;;;;5042960;28;20025;-69
2021/01/29 05:05:44;;;;;;;0.60;0.60;;;9.20;91.00;;;;;;5051439;28;20059;-69
2021/01/29 05:08:13;;;;;;;0.50;0.50;;;9.20;91.00;;;;;;5052136;28;20033;-69
2021/01/29 05:10:58;;;;;;;2.20;0.68;;;9.20;91.00;;;;;;5052238;28;20025;-69
2021/01/29 05:13:49;;;;;;;2.55;0.50;;;9.20;91.00;;;;;;5025313;28;20056;-69
2021/01/29 05:16:30;;;;;;;1.50;0.80;;;9.20;91.00;;;;;;5050082;28;20108;-68
2021/01/29 05:19:17;;;;;;;1.03;0.60;;;9.20;91.00;;;;;;5052519;28;20032;-69
2021/01/29 05:22:21;;;;;;;0.88;0.60;;;9.10;91.00;;;;;;5052389;28;20259;-69
2021/01/29 05:25:25;;;;;;;0.82;0.80;;;9.10;91.10;;;;;;5049820;28;20389;-69
2021/01/29 05:28:02;;;;;;;0.50;0.50;;;9.00;91.20;;;;;;4971029;28;20376;-69
2021/01/29 05:31:07;;;;;;;0.60;0.60;;;9.00;91.30;;;;;;4974995;28;20037;-69
2021/01/29 05:33:52;;;;;;;1.95;0.50;;;9.00;91.30;;;;;;5033560;28;20588;-69
2021/01/29 05:37:01;;;;;;;1.05;0.75;;;9.00;91.30;;;;;;5052270;28;20108;-69
2021/01/29 05:40:04;;;;;;;2.20;0.57;;;9.00;91.30;;;;;;5019086;28;20569;-69
2021/01/29 05:42:45;;;;;;;1.20;0.57;;;9.00;91.20;;;;;;5047200;28;20036;-69
2021/01/29 05:45:13;;;;;;;0.88;0.43;;;9.10;91.20;;;;;;5045427;28;20577;-70
2021/01/29 05:48:26;;;;;;;0.77;0.55;;;9.10;91.10;;;;;;5052805;28;20029;-70
2021/01/29 05:51:15;;;;;;;0.55;0.47;;;9.10;91.10;;;;;;5050813;28;20048;-70
2021/01/29 05:53:58;;;;;;;0.73;0.55;;;9.10;91.10;;;;;;5050052;28;20133;-70
2021/01/29 05:56:43;;;;;;;0.50;0.50;;;9.10;91.00;;;;;;5050994;28;20032;-71
2021/01/29 05:59:35;;;;;;;0.60;0.55;;;9.10;91.00;;;;;;5039541;28;20036;-71
2021/01/29 06:02:18;;;;;;;0.60;0.60;;;9.20;91.00;;;;;;5045538;28;20017;-70
2021/01/29 06:05:06;;;;;;;0.57;0.57;;;9.20;90.90;;;;;;5049959;28;20029;-70
2021/01/29 06:07:34;;;;;;;0.52;0.50;;;9.20;90.80;;;;;;5039441;28;20040;-70
2021/01/29 06:10:29;;;;;;;1.50;0.60;;;9.20;90.80;;;;;;5050782;28;20481;-71
2021/01/29 06:13:06;;;;;;;1.60;0.60;;;9.10;90.90;;;;;;4986765;28;20050;-71
2021/01/29 06:15:56;;;;;;;1.35;0.50;;;9.10;91.00;;;;;;5051903;28;20445;-69
2021/01/29 06:18:43;;;;;;;0.60;0.50;;;9.00;91.10;;;;;;5051401;28;20120;-70
2021/01/29 06:21:17;;;;;;;2.05;0.80;;;8.90;91.20;;;;;;5051226;28;20100;-71
2021/01/29 06:24:21;;;;;;;4.22;1.75;;;8.90;91.30;;;;;;5036301;28;20029;-70
2021/01/29 06:27:19;;;;;;;0.52;0.52;;;9.00;91.50;;;;;;4959513;28;20035;-73
2021/01/29 06:30:15;;;;;;;0.47;0.47;;;8.90;91.50;;;;;;5030675;28;20033;-70
2021/01/29 06:32:43;;;;;;;0.30;0.30;;;9.00;91.50;;;;;;5048057;28;20032;-71
2021/01/29 06:35:37;;;;;;;0.40;0.40;;;9.00;91.50;;;;;;5049695;28;20477;-71
2021/01/29 06:38:30;;;;;;;0.40;0.30;;;9.00;91.60;;;;;;5046188;28;20032;-70
2021/01/29 06:41:33;;;;;;;1.45;0.60;;;9.00;91.50;;;;;;5050069;28;20049;-70
2021/01/29 06:44:13;;;;;;;1.08;0.60;;;9.00;91.60;;;;;;5049641;28;20029;-71
2021/01/29 06:47:01;;;;;;;0.70;0.60;;;9.00;91.60;;;;;;5050422;28;20083;-71
2021/01/29 06:49:51;;;;;;;0.57;0.57;;;9.00;91.60;;;;;;5049180;28;20032;-71
2021/01/29 06:52:20;;;;;;;1.17;1.10;;;9.00;91.70;;;;;;5043692;28;20117;-70
2021/01/29 06:54:57;;;;;;;0.38;0.38;;;9.00;91.60;;;;;;5050371;28;20044;-73
2021/01/29 06:57:43;;;;;;;0.40;0.40;;;9.00;91.60;;;;;;5049938;28;20029;-70
2021/01/29 07:00:30;;;;;;;0.40;0.40;;;9.10;91.50;;;;;;5050741;28;20021;-71
2021/01/29 07:03:35;;;;;;;0.30;0.30;;;9.20;91.40;;;;;;5047827;28;20021;-71
2021/01/29 07:06:14;;;;;;;0.82;0.52;;;9.30;91.20;;;;;;5050237;28;20078;-72
2021/01/29 07:08:48;;;;;;;0.85;0.50;;;9.30;90.90;;;;;;5048594;28;20115;-72
2021/01/29 07:11:43;;;;;;;0.45;0.40;;;9.40;90.80;;;;;;5034956;28;20400;-71
2021/01/29 07:14:27;;;;;;;1.63;0.45;;;9.40;90.70;;;;;;5045949;28;20029;-71
2021/01/29 07:17:29;;;;;;;0.40;0.40;;;9.50;90.40;;;;;;5044839;28;20052;-70
2021/01/29 07:20:32;;;;;;;0.70;0.43;;;9.50;90.40;;;;;;5043691;28;20073;-70
2021/01/29 07:23:00;;;;;;;0.50;0.50;;;9.50;90.20;;;;;;5048893;28;20447;-71
2021/01/29 07:25:35;;;;;;;0.82;0.50;;;9.60;90.20;;;;;;5049147;28;20036;-73
2021/01/29 07:28:17;;;;;;;0.30;0.30;;;9.50;90.10;;;;;;5050410;28;20382;-70
2021/01/29 07:31:01;;;;;;;0.93;0.30;;;9.60;90.00;;;;;;5049992;28;20028;-71
2021/01/29 07:33:46;;;;;;;0.40;0.40;;;9.60;89.90;;;;;;5049914;28;20021;-75
2021/01/29 07:36:36;;;;;;;0.47;0.47;;;9.60;89.70;;;;;;5031636;28;20024;-73
2021/01/29 07:39:29;;;;;;;0.73;0.50;;;9.60;89.50;;;;;;5048725;28;20384;-73
2021/01/29 07:42:11;;;;;;;0.73;0.40;;;9.60;89.00;;;;;;5048513;28;20078;-72
2021/01/29 07:44:42;;;;;;;0.85;0.50;;;9.60;88.80;;;;;;5041128;28;20075;-74
2021/01/29 07:47:17;;;;;;;0.30;0.30;;;9.70;88.50;;;;;;5032022;28;20036;-70
2021/01/29 07:49:51;;;;;;;3.03;0.40;;;9.70;87.80;;;;;;5047577;28;20029;-70
2021/01/29 07:52:43;;;;;;;0.50;0.38;;;9.70;88.20;;;;;;5044252;28;20029;-69
2021/01/29 07:55:26;;;;;;;0.68;0.40;;;9.70;87.50;;;;;;5029064;28;20456;-69
2021/01/29 07:58:01;;;;;;;;;;;9.70;87.00;;;;;;5049824;28;20040;-69
2021/01/29 08:01:09;;;;;;;2.42;0.40;;;9.70;87.20;;;;;;5036306;28;20411;-70
2021/01/29 08:04:12;;;;;;;0.40;0.30;;;9.70;87.30;;;;;;5007207;28;20113;-69
2021/01/29 08:06:40;;;;;;;0.50;0.40;;;9.70;86.70;;;;;;5034452;28;20025;-69
2021/01/29 08:09:22;;;;;;;0.40;0.40;;;9.70;86.90;;;;;;5053756;28;20021;-69
2021/01/29 08:11:52;;;;;;;0.68;0.40;;;9.70;86.70;;;;;;5053501;28;20049;-69
2021/01/29 08:14:58;;;;;;;0.68;0.30;;;9.70;86.50;;;;;;5048975;28;20017;-69
2021/01/29 08:17:58;;;;;;;0.30;0.30;;;9.70;86.40;;;;;;5034151;28;20025;-69
2021/01/29 08:20:45;;;;;;;1.92;0.40;;;9.70;86.30;;;;;;5039239;28;20134;-70
2021/01/29 08:23:23;;;;;;;1.13;0.40;;;9.80;86.10;;;;;;5052747;28;20025;-71
2021/01/29 08:25:58;;;;;;;0.43;0.40;;;9.80;86.10;;;;;;5052439;28;20454;-71
2021/01/29 08:28:55;;;;;;;0.30;0.30;;;9.80;86.10;;;;;;5050931;28;20057;-68
2021/01/29 08:31:39;;;;;;;1.40;0.47;;;9.90;85.70;;;;;;5041470;28;20017;-70
2021/01/29 08:34:33;;;;;;;0.38;0.38;;;9.90;85.50;;;;;;5049728;28;20499;-70
2021/01/29 08:37:23;;;;;;;0.80;0.50;;;9.90;85.70;;;;;;5051755;28;20025;-71
2021/01/29 08:39:57;;;;;;;0.40;0.40;;;9.90;85.10;;;;;;5052515;28;20029;-71
2021/01/29 08:42:47;;;;;;;0.40;0.40;;;9.90;85.00;;;;;;5052982;28;20096;-70
2021/01/29 08:45:21;;;;;;;0.40;0.40;;;9.90;84.80;;;;;;5051923;28;20029;-71
2021/01/29 08:48:36;;;;;;;0.63;0.47;;;9.90;84.80;;;;;;5048587;28;20029;-72
2021/01/29 08:51:36;;;;;;;0.45;0.40;;;9.90;84.90;;;;;;4954593;28;20796;-72
2021/01/29 08:54:23;;;;;;;0.38;0.30;;;10.00;84.90;;;;;;4943656;28;20051;-71
2021/01/29 08:57:11;;;;;;;0.73;0.60;;;10.00;84.60;;;;;;5041002;28;20076;-71
2021/01/29 08:59:39;;;;;;;3.20;0.30;;;10.10;84.40;;;;;;5050266;28;20040;-71
2021/01/29 09:02:21;;;;;;;1.25;0.40;;;10.10;84.20;;;;;;5051149;28;20116;-68
2021/01/29 09:04:49;;;;;;;0.77;0.50;;;10.10;83.50;;;;;;5051188;28;20086;-71
2021/01/29 09:07:29;;;;;;;1.67;0.35;;;10.10;83.50;;;;;;5041710;28;20124;-71
2021/01/29 09:10:10;;;;;;;0.30;0.30;;;10.20;83.30;;;;;;5051672;28;20033;-69
2021/01/29 09:12:37;;;;;;;0.40;0.40;;;10.20;82.90;;;;;;5051519;28;20041;-71
2021/01/29 09:15:23;;;;;;;1.17;0.40;;;10.20;83.10;;;;;;5033318;28;20818;-72
2021/01/29 09:18:05;;;;;;;0.90;0.40;;;10.20;82.60;;;;;;5052316;28;20579;-72
2021/01/29 09:20:42;;;;;;;0.35;0.30;;;10.30;82.90;;;;;;5035109;28;20021;-69
2021/01/29 09:23:20;;;;;;;2.30;0.50;;;10.30;83.00;;;;;;5034420;28;20108;-70
2021/01/29 09:25:55;;;;;;;1.25;0.40;;;10.20;83.10;;;;;;5051234;28;20037;-71
2021/01/29 09:28:30;;;;;;;0.38;0.38;;;10.20;83.60;;;;;;5046884;28;20053;-72
2021/01/29 09:31:06;;;;;;;2.03;1.00;;;10.10;83.90;;;;;;5043779;28;20037;-73
2021/01/29 09:33:40;;;;;;;1.23;0.60;;;10.00;84.40;;;;;;5050704;28;20111;-71
2021/01/29 09:36:20;;;;;;;0.47;0.40;;;10.00;84.50;;;;;;5032131;28;20364;-71
2021/01/29 09:39:07;;;;;;;0.65;0.40;;;10.00;83.80;;;;;;5031671;28;20021;-71
2021/01/29 09:41:46;;;;;;;2.42;0.70;;;10.00;84.10;;;;;;5051576;28;20036;-72
2021/01/29 09:44:26;;;;;;;0.32;0.32;;;10.10;83.60;;;;;;5047467;28;20571;-71
2021/01/29 09:46:55;;;;;;;1.98;0.47;;;10.10;83.30;;;;;;5044285;28;20116;-72
2021/01/29 09:49:23;;;;;;;0.95;0.50;;;10.20;82.70;;;;;;5039356;28;20021;-71
2021/01/29 09:52:11;;;;;;;1.65;0.60;;;10.20;82.70;;;;;;5051935;28;20124;-71
2021/01/29 09:55:14;;;;;;;2.45;0.70;;;10.20;82.70;;;;;;5041793;28;20037;-71
2021/01/29 09:58:20;;;;;;;1.48;0.90;;;10.20;82.90;;;;;;5051367;28;20500;-70
2021/01/29 10:01:04;;;;;;;2.40;0.73;;;10.30;82.40;;;;;;5050685;28;20025;-72
2021/01/29 10:03:55;;;;;;;1.63;0.63;;;10.30;81.00;;;;;;5049993;28;20028;-71
2021/01/29 10:06:29;;;;;;;2.22;0.57;;;10.30;80.90;;;;;;5117333;22;20420;-68
2021/01/29 10:09:01;;;;;;;2.22;0.80;;;10.40;81.10;;;;;;5042411;28;20209;-68
2021/01/29 10:11:35;;;;;;;1.55;0.52;;;10.40;80.10;;;;;;5050719;28;20025;-68
2021/01/29 10:14:18;;;;;;;1.55;0.80;;;10.40;79.60;;;;;;5025103;28;20037;-68
2021/01/29 10:17:15;;;;;;;3.72;0.95;;;10.40;79.50;;;;;;5004590;28;20025;-68
2021/01/29 10:19:44;;;;;;;4.35;0.70;;;10.40;78.70;;;;;;5028315;28;20120;-69
2021/01/29 10:22:38;;;;;;;3.15;0.90;;;10.50;78.30;;;;;;5030883;28;20033;-69
2021/01/29 10:25:21;;;;;;;3.10;1.02;;;10.50;78.00;;;;;;5015592;28;20028;-69
2021/01/29 10:28:18;;;;;;;6.47;1.15;;;10.50;77.90;;;;;;5028958;28;20106;-69
2021/01/29 10:30:45;;;;;;;5.32;1.00;;;10.50;77.80;;;;;;4983381;28;20513;-68
2021/01/29 10:33:22;;;;;;;2.35;0.90;;;10.50;78.40;;;;;;5028907;28;20052;-69
2021/01/29 10:36:02;;;;;;;3.25;0.77;;;10.50;78.80;;;;;;5029908;28;20026;-68
2021/01/29 10:38:35;;;;;;;4.53;1.08;;;10.50;77.50;;;;;;5028293;28;20088;-69
2021/01/29 10:41:03;;;;;;;;;;;10.60;76.80;;;;;;5031272;28;20022;-68
2021/01/29 10:43:51;;;;;;;4.20;1.00;;;10.60;77.00;;;;;;5030912;28;19995;-68
2021/01/29 10:46:54;;;;;;;3.30;0.77;;;10.60;76.40;;;;;;5029162;28;20023;-69
2021/01/29 10:49:32;;;;;;;4.95;0.95;;;10.60;76.30;;;;;;5030383;28;20029;-68
2021/01/29 10:52:12;;;;;;;2.90;0.68;;;10.70;75.80;;;;;;5030836;28;20057;-68
2021/01/29 10:54:40;;;;;;;3.67;0.80;;;10.60;74.70;;;;;;5011411;28;20032;-69
2021/01/29 10:57:14;;;;;;;3.40;0.90;;;10.60;75.60;;;;;;5030485;28;20025;-69
2021/01/29 11:00:06;;;;;;;7.22;1.08;;;10.60;76.10;;;;;;5030861;28;20100;-70
2021/01/29 11:02:49;;;;;;;2.50;1.13;;;10.50;76.60;;;;;;5007251;28;20117;-68
2021/01/29 11:05:23;;;;;;;5.78;1.45;;;10.50;76.40;;;;;;5029064;28;20033;-69
2021/01/29 11:07:52;;;;;;;5.75;1.20;;;10.50;76.30;;;;;;5017502;28;20511;-70
2021/01/29 11:10:33;;;;;;;0.85;0.60;;;10.40;76.00;;;;;;5023862;28;20027;-68
2021/01/29 11:13:21;;;;;;;4.70;0.85;;;10.40;76.70;;;;;;5012440;28;20026;-69
2021/01/29 11:15:57;;;;;;;2.00;0.70;;;10.40;76.70;;;;;;5029967;28;20164;-68
2021/01/29 11:18:35;;;;;;;4.18;0.88;;;10.40;77.00;;;;;;5027652;28;20033;-69
2021/01/29 11:21:19;;;;;;;3.63;0.93;;;10.40;77.00;;;;;;5030026;28;20026;-71
2021/01/29 11:24:06;;;;;;;6.03;1.42;;;10.40;76.90;;;;;;5030496;28;20807;-69
2021/01/29 11:26:49;;;;;;;6.63;2.55;;;10.40;76.90;;;;;;5022993;28;20022;-70
2021/01/29 11:29:30;;;;;;;6.47;1.38;;;10.30;76.40;;;;;;5022508;28;20045;-69
2021/01/29 11:32:23;;;;;;;4.32;0.70;;;10.30;75.50;;;;;;5011473;28;20045;-69
2021/01/29 11:35:09;;;;;;;7.70;1.10;;;10.30;75.70;;;;;;5021333;28;20385;-68
2021/01/29 11:37:56;;;;;;;9.27;1.60;;;10.30;76.30;;;;;;5022115;28;20026;-69
2021/01/29 11:40:35;;;;;;;5.18;1.00;;;10.20;76.20;;;;;;5021232;28;20057;-69
2021/01/29 11:43:10;;;;;;;5.68;1.05;;;10.20;76.70;;;;;;5030232;28;20121;-69
2021/01/29 11:45:54;;;;;;;4.07;1.00;;;10.20;75.90;;;;;;5028591;28;20052;-69
2021/01/29 11:48:36;;;;;;;5.20;1.10;;;10.20;76.40;;;;;;5030434;28;20485;-69
2021/01/29 11:51:17;;;;;;;10.73;2.33;;;10.20;76.20;;;;;;5030057;28;20116;-68
2021/01/29 11:53:46;;;;;;;12.03;4.63;;;10.20;76.80;;;;;;5022054;28;20037;-68
2021/01/29 11:56:28;;;;;;;4.40;1.38;;;10.20;76.60;;;;;;5019339;28;20029;-68
2021/01/29 11:59:22;;;;;;;5.05;1.40;;;10.30;76.50;;;;;;5027911;28;20051;-70
2021/01/29 12:02:25;;;;;;;4.85;1.00;;;10.30;75.50;;;;;;5028828;28;20030;-68
2021/01/29 12:05:26;;;;;;;6.00;0.82;;;10.30;75.60;;;;;;5026485;28;20026;-70
2021/01/29 12:08:04;;;;;;;4.85;1.73;;;10.40;75.50;;;;;;5006760;28;20044;-69
2021/01/29 12:10:42;;;;;;;4.15;0.90;;;10.40;75.50;;;;;;5024466;28;20493;-68
2021/01/29 12:13:21;;;;;;;2.17;0.75;;;10.40;75.80;;;;;;5012423;28;20028;-69
2021/01/29 12:15:57;;;;;;;4.75;0.80;;;10.30;75.60;;;;;;5028193;28;20057;-70
2021/01/29 12:18:26;;;;;;;7.13;1.00;;;10.30;75.40;;;;;;5030126;28;20033;-70
2021/01/29 12:21:09;;;;;;;5.93;1.15;;;10.30;76.20;;;;;;5021391;28;20029;-69
2021/01/29 12:23:38;;;;;;;5.68;1.20;;;10.30;75.90;;;;;;5028635;28;20026;-70
2021/01/29 12:26:07;;;;;;;2.05;0.85;;;10.40;75.40;;;;;;5026931;28;20048;-68
2021/01/29 12:28:38;;;;;;;3.17;1.30;;;10.40;76.00;;;;;;5029599;28;20021;-69
2021/01/29 12:31:23;;;;;;;4.17;0.90;;;10.40;75.80;;;;;;5029872;28;20041;-69
2021/01/29 12:33:56;;;;;;;5.90;1.27;;;10.40;75.80;;;;;;5021080;28;20302;-69
2021/01/29 12:36:26;;;;;;;4.32;1.00;;;10.50;75.70;;;;;;5010425;28;20033;-70
2021/01/29 12:39:00;;;;;;;2.95;0.80;;;10.50;75.70;;;;;;5021247;28;20056;-69
2021/01/29 12:41:47;;;;;;;5.63;1.17;;;10.50;75.00;;;;;;5029116;28;20025;-69
2021/01/29 12:44:31;;;;;;;4.03;1.00;;;10.70;75.50;;;;;;5030595;28;20626;-68
2021/01/29 12:47:17;;;;;;;4.68;1.10;;;10.80;74.30;;;;;;5033524;28;20540;-68
2021/01/29 12:50:20;;;;;;;8.32;1.95;;;10.80;72.80;;;;;;5033997;28;20139;-68
2021/01/29 12:52:51;;;;;;;;;;;10.80;72.10;;;;;;5034072;28;20053;-68
2021/01/29 12:55:20;;;;;;;4.38;1.00;;;10.80;72.10;;;;;;5032320;28;19909;-69
2021/01/29 12:57:59;;;;;;;9.30;1.20;;;10.80;72.60;;;;;;5033588;28;20055;-68
2021/01/29 13:00:28;;;;;;;3.85;1.20;;;10.80;72.90;;;;;;5033845;28;20028;-68
2021/01/29 13:03:52;;;;;;;5.13;1.13;;;10.80;72.10;;;;;;5034772;28;20102;-69
2021/01/29 13:07:05;;;;;;;4.82;1.10;;;10.80;72.60;;;;;;4959908;28;20056;-69
2021/01/29 13:09:58;;;;;;;3.42;0.80;;;10.90;72.30;;;;;;4909230;29;20080;-69
2021/01/29 13:12:38;;;;;;;4.70;0.95;;;11.00;72.70;;;;;;4971564;28;20182;-68
2021/01/29 13:15:23;;;;;;;7.22;1.88;;;11.10;70.80;;;;;;5016530;28;20091;-69
2021/01/29 13:18:14;;;;;;;5.38;1.00;;;11.10;71.40;;;;;;5033645;28;20021;-68
2021/01/29 13:20:45;;;;;;;6.30;1.15;;;11.00;70.70;;;;;;5014669;28;20080;-68
2021/01/29 13:23:38;;;;;;;5.78;1.02;;;11.00;70.80;;;;;;5013761;28;20113;-68
2021/01/29 13:26:13;;;;;;;5.30;1.08;;;10.90;71.70;;;;;;5014311;28;20026;-69
2021/01/29 13:28:56;;;;;;;8.93;1.40;;;11.00;71.30;;;;;;5033122;28;20648;-68
2021/01/29 13:31:35;;;;;;;7.60;1.40;;;10.90;71.10;;;;;;5032737;28;20037;-69
2021/01/29 13:34:11;;;;;;;4.50;1.10;;;10.90;71.70;;;;;;5032086;28;20021;-68
2021/01/29 13:36:38;;;;;;;5.38;1.08;;;10.90;71.90;;;;;;5030455;28;20037;-69
2021/01/29 13:39:25;;;;;;;6.60;1.75;;;10.90;71.90;;;;;;5012757;28;20038;-69
2021/01/29 13:42:01;;;;;;;7.32;1.23;;;10.80;72.60;;;;;;5019500;28;20060;-68
2021/01/29 13:44:29;;;;;;;5.30;1.27;;;10.60;73.60;;;;;;5016485;28;20022;-68
2021/01/29 13:46:56;;;;;;;5.97;1.35;;;10.40;74.40;;;;;;5012515;28;20152;-69
2021/01/29 13:49:40;;;;;;;7.90;1.10;;;10.20;75.20;;;;;;5032294;28;20045;-68
2021/01/29 13:52:29;;;;;;;9.85;1.40;;;10.10;76.10;;;;;;5032106;28;20029;-70
2021/01/29 13:55:16;;;;;;;7.68;1.42;;;10.00;76.60;;;;;;5012506;28;20013;-68
2021/01/29 13:57:50;;;;;;;7.07;1.55;;;10.00;77.10;;;;;;5031431;28;20048;-68
2021/01/29 14:00:21;;;;;;;6.47;1.40;;;10.00;77.40;;;;;;5032090;28;20025;-69
2021/01/29 14:02:58;;;;;;;6.50;1.10;;;9.90;77.50;;;;;;5031824;28;20167;-68